sensor_id;sensor_type;location;lat;lon;timestamp;P1;durP1;ratioP1;P2;durP2;ratioP2
7917;SDS011;4004;42.624;23.386;2022-12-15T00:02:31;20.77;;;16.40;;
7917;SDS011;4004;42.624;23.386;2022-12-15T00:05:15;20.13;;;16.60;;
7917;SDS011;4004;42.624;23.386;2022-12-15T00:08:06;20.73;;;16.47;;
7917;SDS011;4004;42.624;23.386;2022-12-15T00:10:51;19.60;;;16.70;;
7917;SDS011;4004;42.624;23.386;2022-12-15T00:13:34;20.67;;;16.90;;
7917;SDS011;4004;42.624;23.386;2022-12-15T00:16:18;20.40;;;16.47;;
7917;SDS011;4004;42.624;23.386;2022-12-15T00:19:02;22.27;;;17.57;;
7917;SDS011;4004;42.624;23.386;2022-12-15T00:21:46;20.13;;;15.57;;
7917;SDS011;4004;42.624;23.386;2022-12-15T00:24:32;22.60;;;16.30;;
7917;SDS011;4004;42.624;23.386;2022-12-15T00:27:16;20.80;;;17.47;;
7917;SDS011;4004;42.624;23.386;2022-12-15T00:30:00;22.13;;;18.03;;
7917;SDS011;4004;42.624;23.386;2022-12-15T00:32:44;21.77;;;17.83;;
7917;SDS011;4004;42.624;23.386;2022-12-15T00:35:29;22.23;;;17.77;;
7917;SDS011;4004;42.624;23.386;2022-12-15T00:38:13;21.53;;;17.53;;
7917;SDS011;4004;42.624;23.386;2022-12-15T00:40:59;22.27;;;17.07;;
7917;SDS011;4004;42.624;23.386;2022-12-15T00:43:26;20.93;;;17.93;;
7917;SDS011;4004;42.624;23.386;2022-12-15T00:45:53;20.13;;;17.13;;
7917;SDS011;4004;42.624;23.386;2022-12-15T00:48:37;20.07;;;17.50;;
7917;SDS011;4004;42.624;23.386;2022-12-15T00:51:04;19.80;;;17.37;;
7917;SDS011;4004;42.624;23.386;2022-12-15T00:53:30;23.27;;;18.10;;
7917;SDS011;4004;42.624;23.386;2022-12-15T00:56:16;19.63;;;16.87;;
7917;SDS011;4004;42.624;23.386;2022-12-15T00:59:01;19.37;;;17.03;;
7917;SDS011;4004;42.624;23.386;2022-12-15T01:01:45;20.07;;;17.47;;
7917;SDS011;4004;42.624;23.386;2022-12-15T01:04:29;20.47;;;17.27;;
7917;SDS011;4004;42.624;23.386;2022-12-15T01:07:14;22.03;;;17.90;;
7917;SDS011;4004;42.624;23.386;2022-12-15T01:09:58;18.23;;;16.10;;
7917;SDS011;4004;42.624;23.386;2022-12-15T01:12:45;20.33;;;16.40;;
7917;SDS011;4004;42.624;23.386;2022-12-15T01:15:29;17.60;;;15.70;;
7917;SDS011;4004;42.624;23.386;2022-12-15T01:18:14;17.20;;;15.00;;
7917;SDS011;4004;42.624;23.386;2022-12-15T01:21:00;17.33;;;14.40;;
7917;SDS011;4004;42.624;23.386;2022-12-15T01:23:29;15.50;;;13.03;;
7917;SDS011;4004;42.624;23.386;2022-12-15T01:25:56;16.37;;;13.23;;
7917;SDS011;4004;42.624;23.386;2022-12-15T01:28:24;13.30;;;11.67;;
7917;SDS011;4004;42.624;23.386;2022-12-15T01:30:51;13.63;;;12.23;;
7917;SDS011;4004;42.624;23.386;2022-12-15T01:33:18;15.00;;;11.97;;
7917;SDS011;4004;42.624;23.386;2022-12-15T01:35:53;13.20;;;10.93;;
7917;SDS011;4004;42.624;23.386;2022-12-15T01:38:21;12.47;;;10.53;;
7917;SDS011;4004;42.624;23.386;2022-12-15T01:40:49;12.88;;;11.07;;
7917;SDS011;4004;42.624;23.386;2022-12-15T01:43:18;16.45;;;13.50;;
7917;SDS011;4004;42.624;23.386;2022-12-15T01:45:52;15.60;;;13.88;;
7917;SDS011;4004;42.624;23.386;2022-12-15T01:48:26;16.17;;;14.47;;
7917;SDS011;4004;42.624;23.386;2022-12-15T01:51:00;17.17;;;14.60;;
7917;SDS011;4004;42.624;23.386;2022-12-15T01:53:35;15.35;;;13.07;;
7917;SDS011;4004;42.624;23.386;2022-12-15T01:56:06;13.77;;;11.40;;
7917;SDS011;4004;42.624;23.386;2022-12-15T01:58:33;14.13;;;12.27;;
7917;SDS011;4004;42.624;23.386;2022-12-15T02:01:03;13.50;;;11.50;;
7917;SDS011;4004;42.624;23.386;2022-12-15T02:03:31;13.80;;;12.17;;
7917;SDS011;4004;42.624;23.386;2022-12-15T02:05:58;14.17;;;12.17;;
7917;SDS011;4004;42.624;23.386;2022-12-15T02:08:26;12.57;;;11.27;;
7917;SDS011;4004;42.624;23.386;2022-12-15T02:10:58;10.77;;;9.67;;
7917;SDS011;4004;42.624;23.386;2022-12-15T02:13:38;10.93;;;9.83;;
7917;SDS011;4004;42.624;23.386;2022-12-15T02:16:17;9.97;;;8.90;;
7917;SDS011;4004;42.624;23.386;2022-12-15T02:18:57;9.87;;;8.87;;
7917;SDS011;4004;42.624;23.386;2022-12-15T02:21:31;9.38;;;8.38;;
7917;SDS011;4004;42.624;23.386;2022-12-15T02:24:18;9.00;;;8.10;;
7917;SDS011;4004;42.624;23.386;2022-12-15T02:30:08;8.97;;;7.20;;
7917;SDS011;4004;42.624;23.386;2022-12-15T02:32:47;9.27;;;8.03;;
7917;SDS011;4004;42.624;23.386;2022-12-15T02:35:22;8.57;;;7.77;;
7917;SDS011;4004;42.624;23.386;2022-12-15T02:37:53;9.43;;;7.87;;
7917;SDS011;4004;42.624;23.386;2022-12-15T02:40:20;9.00;;;7.97;;
7917;SDS011;4004;42.624;23.386;2022-12-15T02:42:48;9.67;;;8.67;;
7917;SDS011;4004;42.624;23.386;2022-12-15T02:45:19;11.53;;;9.73;;
7917;SDS011;4004;42.624;23.386;2022-12-15T02:47:55;10.80;;;9.40;;
7917;SDS011;4004;42.624;23.386;2022-12-15T02:50:34;9.47;;;8.17;;
7917;SDS011;4004;42.624;23.386;2022-12-15T02:53:17;10.43;;;9.10;;
7917;SDS011;4004;42.624;23.386;2022-12-15T02:55:59;11.47;;;9.37;;
7917;SDS011;4004;42.624;23.386;2022-12-15T02:58:35;12.17;;;10.10;;
7917;SDS011;4004;42.624;23.386;2022-12-15T03:01:07;13.83;;;11.60;;
7917;SDS011;4004;42.624;23.386;2022-12-15T03:03:39;12.87;;;11.57;;
7917;SDS011;4004;42.624;23.386;2022-12-15T03:06:08;15.97;;;12.63;;
7917;SDS011;4004;42.624;23.386;2022-12-15T03:08:35;13.70;;;12.13;;
7917;SDS011;4004;42.624;23.386;2022-12-15T03:11:02;13.23;;;11.17;;
7917;SDS011;4004;42.624;23.386;2022-12-15T03:13:29;14.30;;;11.87;;
7917;SDS011;4004;42.624;23.386;2022-12-15T03:15:56;13.77;;;11.87;;
7917;SDS011;4004;42.624;23.386;2022-12-15T03:18:24;12.87;;;11.20;;
7917;SDS011;4004;42.624;23.386;2022-12-15T03:20:51;12.47;;;11.17;;
7917;SDS011;4004;42.624;23.386;2022-12-15T03:23:18;12.70;;;11.37;;
7917;SDS011;4004;42.624;23.386;2022-12-15T03:25:47;13.97;;;11.70;;
7917;SDS011;4004;42.624;23.386;2022-12-15T03:28:14;13.90;;;11.27;;
7917;SDS011;4004;42.624;23.386;2022-12-15T03:30:41;14.67;;;11.77;;
7917;SDS011;4004;42.624;23.386;2022-12-15T03:33:08;15.40;;;12.33;;
7917;SDS011;4004;42.624;23.386;2022-12-15T03:35:36;13.17;;;11.27;;
7917;SDS011;4004;42.624;23.386;2022-12-15T03:38:02;13.60;;;11.60;;
7917;SDS011;4004;42.624;23.386;2022-12-15T03:40:29;13.77;;;12.37;;
7917;SDS011;4004;42.624;23.386;2022-12-15T03:42:56;15.47;;;11.80;;
7917;SDS011;4004;42.624;23.386;2022-12-15T03:45:23;13.83;;;11.77;;
7917;SDS011;4004;42.624;23.386;2022-12-15T03:47:52;13.70;;;11.73;;
7917;SDS011;4004;42.624;23.386;2022-12-15T03:50:20;15.17;;;12.57;;
7917;SDS011;4004;42.624;23.386;2022-12-15T03:52:50;14.80;;;12.63;;
7917;SDS011;4004;42.624;23.386;2022-12-15T03:55:18;15.73;;;13.03;;
7917;SDS011;4004;42.624;23.386;2022-12-15T03:57:45;14.60;;;12.47;;
7917;SDS011;4004;42.624;23.386;2022-12-15T04:00:12;16.63;;;13.57;;
7917;SDS011;4004;42.624;23.386;2022-12-15T04:02:40;15.23;;;13.03;;
7917;SDS011;4004;42.624;23.386;2022-12-15T04:05:07;13.33;;;11.93;;
7917;SDS011;4004;42.624;23.386;2022-12-15T04:07:38;14.27;;;12.77;;
7917;SDS011;4004;42.624;23.386;2022-12-15T04:10:07;18.57;;;14.70;;
7917;SDS011;4004;42.624;23.386;2022-12-15T04:12:34;19.50;;;16.37;;
7917;SDS011;4004;42.624;23.386;2022-12-15T04:15:04;15.93;;;13.37;;
7917;SDS011;4004;42.624;23.386;2022-12-15T04:17:32;17.50;;;14.47;;
7917;SDS011;4004;42.624;23.386;2022-12-15T04:19:59;18.93;;;15.07;;
7917;SDS011;4004;42.624;23.386;2022-12-15T04:22:35;17.43;;;14.67;;
7917;SDS011;4004;42.624;23.386;2022-12-15T04:25:03;18.87;;;15.70;;
7917;SDS011;4004;42.624;23.386;2022-12-15T04:27:49;19.77;;;16.57;;
7917;SDS011;4004;42.624;23.386;2022-12-15T04:30:34;20.87;;;16.07;;
7917;SDS011;4004;42.624;23.386;2022-12-15T04:33:18;18.33;;;15.83;;
7917;SDS011;4004;42.624;23.386;2022-12-15T04:36:04;20.80;;;17.10;;
7917;SDS011;4004;42.624;23.386;2022-12-15T04:38:50;21.43;;;17.50;;
7917;SDS011;4004;42.624;23.386;2022-12-15T04:41:34;20.30;;;17.03;;
7917;SDS011;4004;42.624;23.386;2022-12-15T04:44:19;20.80;;;16.77;;
7917;SDS011;4004;42.624;23.386;2022-12-15T04:47:04;15.33;;;13.23;;
7917;SDS011;4004;42.624;23.386;2022-12-15T04:49:48;17.30;;;13.60;;
7917;SDS011;4004;42.624;23.386;2022-12-15T04:52:32;16.17;;;12.83;;
7917;SDS011;4004;42.624;23.386;2022-12-15T04:55:16;15.13;;;11.82;;
7917;SDS011;4004;42.624;23.386;2022-12-15T04:58:03;11.87;;;10.40;;
7917;SDS011;4004;42.624;23.386;2022-12-15T05:00:50;9.63;;;7.88;;
7917;SDS011;4004;42.624;23.386;2022-12-15T05:03:34;10.23;;;9.13;;
7917;SDS011;4004;42.624;23.386;2022-12-15T05:06:18;7.87;;;7.07;;
7917;SDS011;4004;42.624;23.386;2022-12-15T05:09:02;9.13;;;8.23;;
7917;SDS011;4004;42.624;23.386;2022-12-15T05:11:46;9.40;;;8.50;;
7917;SDS011;4004;42.624;23.386;2022-12-15T05:14:31;11.03;;;9.90;;
7917;SDS011;4004;42.624;23.386;2022-12-15T05:17:16;12.93;;;9.80;;
7917;SDS011;4004;42.624;23.386;2022-12-15T05:20:00;10.83;;;9.60;;
7917;SDS011;4004;42.624;23.386;2022-12-15T05:22:45;15.97;;;13.80;;
7917;SDS011;4004;42.624;23.386;2022-12-15T05:25:35;19.07;;;16.47;;
7917;SDS011;4004;42.624;23.386;2022-12-15T05:28:18;22.47;;;17.07;;
7917;SDS011;4004;42.624;23.386;2022-12-15T05:31:04;17.30;;;15.20;;
7917;SDS011;4004;42.624;23.386;2022-12-15T05:33:50;21.33;;;16.93;;
7917;SDS011;4004;42.624;23.386;2022-12-15T05:36:17;22.10;;;17.97;;
7917;SDS011;4004;42.624;23.386;2022-12-15T05:38:46;19.27;;;15.53;;
7917;SDS011;4004;42.624;23.386;2022-12-15T05:41:13;22.50;;;18.17;;
7917;SDS011;4004;42.624;23.386;2022-12-15T05:43:40;22.77;;;18.43;;
7917;SDS011;4004;42.624;23.386;2022-12-15T05:46:06;23.87;;;18.93;;
7917;SDS011;4004;42.624;23.386;2022-12-15T05:48:33;20.33;;;17.07;;
7917;SDS011;4004;42.624;23.386;2022-12-15T05:51:03;20.33;;;17.00;;
7917;SDS011;4004;42.624;23.386;2022-12-15T05:53:30;22.67;;;18.20;;
7917;SDS011;4004;42.624;23.386;2022-12-15T05:55:59;22.57;;;18.87;;
7917;SDS011;4004;42.624;23.386;2022-12-15T05:58:27;22.43;;;18.97;;
7917;SDS011;4004;42.624;23.386;2022-12-15T06:00:53;24.83;;;19.27;;
7917;SDS011;4004;42.624;23.386;2022-12-15T06:03:21;22.93;;;19.40;;
7917;SDS011;4004;42.624;23.386;2022-12-15T06:05:47;25.03;;;18.80;;
7917;SDS011;4004;42.624;23.386;2022-12-15T06:08:15;23.33;;;18.57;;
7917;SDS011;4004;42.624;23.386;2022-12-15T06:10:42;22.50;;;18.47;;
7917;SDS011;4004;42.624;23.386;2022-12-15T06:13:09;23.70;;;19.77;;
7917;SDS011;4004;42.624;23.386;2022-12-15T06:15:36;22.60;;;19.57;;
7917;SDS011;4004;42.624;23.386;2022-12-15T06:18:02;24.57;;;19.03;;
7917;SDS011;4004;42.624;23.386;2022-12-15T06:20:29;23.83;;;20.13;;
7917;SDS011;4004;42.624;23.386;2022-12-15T06:22:56;26.77;;;21.73;;
7917;SDS011;4004;42.624;23.386;2022-12-15T06:25:24;27.37;;;22.50;;
7917;SDS011;4004;42.624;23.386;2022-12-15T06:27:51;28.37;;;21.90;;
7917;SDS011;4004;42.624;23.386;2022-12-15T06:30:17;21.63;;;18.50;;
7917;SDS011;4004;42.624;23.386;2022-12-15T06:32:44;25.63;;;19.57;;
7917;SDS011;4004;42.624;23.386;2022-12-15T06:35:11;28.10;;;18.50;;
7917;SDS011;4004;42.624;23.386;2022-12-15T06:37:38;24.27;;;20.97;;
7917;SDS011;4004;42.624;23.386;2022-12-15T06:40:05;23.50;;;18.63;;
7917;SDS011;4004;42.624;23.386;2022-12-15T06:42:34;24.93;;;19.23;;
7917;SDS011;4004;42.624;23.386;2022-12-15T06:45:01;25.07;;;20.67;;
7917;SDS011;4004;42.624;23.386;2022-12-15T06:47:27;23.00;;;18.17;;
7917;SDS011;4004;42.624;23.386;2022-12-15T06:49:54;22.83;;;16.97;;
7917;SDS011;4004;42.624;23.386;2022-12-15T06:52:21;21.73;;;19.00;;
7917;SDS011;4004;42.624;23.386;2022-12-15T06:54:48;26.70;;;19.03;;
7917;SDS011;4004;42.624;23.386;2022-12-15T06:57:14;23.23;;;17.93;;
7917;SDS011;4004;42.624;23.386;2022-12-15T06:59:43;24.57;;;19.13;;
7917;SDS011;4004;42.624;23.386;2022-12-15T07:02:12;22.37;;;15.97;;
7917;SDS011;4004;42.624;23.386;2022-12-15T07:04:42;22.87;;;17.27;;
7917;SDS011;4004;42.624;23.386;2022-12-15T07:07:09;22.33;;;18.30;;
7917;SDS011;4004;42.624;23.386;2022-12-15T07:09:36;27.27;;;18.73;;
7917;SDS011;4004;42.624;23.386;2022-12-15T07:12:03;19.13;;;15.70;;
7917;SDS011;4004;42.624;23.386;2022-12-15T07:14:30;21.97;;;15.77;;
7917;SDS011;4004;42.624;23.386;2022-12-15T07:16:58;24.47;;;18.23;;
7917;SDS011;4004;42.624;23.386;2022-12-15T07:19:25;20.53;;;16.33;;
7917;SDS011;4004;42.624;23.386;2022-12-15T07:21:51;18.80;;;16.53;;
7917;SDS011;4004;42.624;23.386;2022-12-15T07:24:20;19.30;;;16.33;;
7917;SDS011;4004;42.624;23.386;2022-12-15T07:26:47;18.50;;;15.20;;
7917;SDS011;4004;42.624;23.386;2022-12-15T07:29:14;20.90;;;14.53;;
7917;SDS011;4004;42.624;23.386;2022-12-15T07:31:41;18.80;;;14.70;;
7917;SDS011;4004;42.624;23.386;2022-12-15T07:34:09;18.57;;;15.03;;
7917;SDS011;4004;42.624;23.386;2022-12-15T07:36:35;16.93;;;14.57;;
7917;SDS011;4004;42.624;23.386;2022-12-15T07:39:03;22.83;;;18.77;;
7917;SDS011;4004;42.624;23.386;2022-12-15T07:41:30;18.83;;;15.20;;
7917;SDS011;4004;42.624;23.386;2022-12-15T07:43:57;20.30;;;15.83;;
7917;SDS011;4004;42.624;23.386;2022-12-15T07:46:26;22.30;;;18.30;;
7917;SDS011;4004;42.624;23.386;2022-12-15T07:48:53;21.07;;;17.90;;
7917;SDS011;4004;42.624;23.386;2022-12-15T07:51:21;23.73;;;17.13;;
7917;SDS011;4004;42.624;23.386;2022-12-15T07:53:48;18.77;;;15.33;;
7917;SDS011;4004;42.624;23.386;2022-12-15T07:56:16;19.57;;;16.13;;
7917;SDS011;4004;42.624;23.386;2022-12-15T07:58:43;21.27;;;16.20;;
7917;SDS011;4004;42.624;23.386;2022-12-15T08:01:10;21.93;;;16.57;;
7917;SDS011;4004;42.624;23.386;2022-12-15T08:03:38;22.40;;;16.20;;
7917;SDS011;4004;42.624;23.386;2022-12-15T08:06:06;22.77;;;16.63;;
7917;SDS011;4004;42.624;23.386;2022-12-15T08:08:35;22.00;;;18.40;;
7917;SDS011;4004;42.624;23.386;2022-12-15T08:11:03;25.57;;;17.47;;
7917;SDS011;4004;42.624;23.386;2022-12-15T08:13:30;22.03;;;16.30;;
7917;SDS011;4004;42.624;23.386;2022-12-15T08:15:58;22.17;;;17.27;;
7917;SDS011;4004;42.624;23.386;2022-12-15T08:18:25;23.40;;;17.30;;
7917;SDS011;4004;42.624;23.386;2022-12-15T08:20:52;20.67;;;16.57;;
7917;SDS011;4004;42.624;23.386;2022-12-15T08:23:18;18.30;;;16.40;;
7917;SDS011;4004;42.624;23.386;2022-12-15T08:25:47;20.30;;;16.27;;
7917;SDS011;4004;42.624;23.386;2022-12-15T08:28:14;18.97;;;16.40;;
7917;SDS011;4004;42.624;23.386;2022-12-15T08:30:40;25.83;;;17.07;;
7917;SDS011;4004;42.624;23.386;2022-12-15T08:33:08;18.67;;;16.37;;
7917;SDS011;4004;42.624;23.386;2022-12-15T08:35:37;19.53;;;16.30;;
7917;SDS011;4004;42.624;23.386;2022-12-15T08:38:04;18.73;;;16.73;;
7917;SDS011;4004;42.624;23.386;2022-12-15T08:40:30;19.77;;;16.57;;
7917;SDS011;4004;42.624;23.386;2022-12-15T08:42:58;20.37;;;16.20;;
7917;SDS011;4004;42.624;23.386;2022-12-15T08:45:25;19.90;;;16.80;;
7917;SDS011;4004;42.624;23.386;2022-12-15T08:47:54;21.43;;;16.83;;
7917;SDS011;4004;42.624;23.386;2022-12-15T08:50:21;18.27;;;16.23;;
7917;SDS011;4004;42.624;23.386;2022-12-15T08:52:47;21.80;;;17.00;;
7917;SDS011;4004;42.624;23.386;2022-12-15T08:55:14;24.70;;;16.47;;
7917;SDS011;4004;42.624;23.386;2022-12-15T08:57:41;20.60;;;15.50;;
7917;SDS011;4004;42.624;23.386;2022-12-15T09:00:10;17.50;;;15.33;;
7917;SDS011;4004;42.624;23.386;2022-12-15T09:02:37;18.87;;;15.63;;
7917;SDS011;4004;42.624;23.386;2022-12-15T09:05:04;20.87;;;17.17;;
7917;SDS011;4004;42.624;23.386;2022-12-15T09:07:31;20.57;;;15.47;;
7917;SDS011;4004;42.624;23.386;2022-12-15T09:09:58;18.87;;;16.43;;
7917;SDS011;4004;42.624;23.386;2022-12-15T09:12:25;21.73;;;16.20;;
7917;SDS011;4004;42.624;23.386;2022-12-15T09:14:52;19.90;;;16.47;;
7917;SDS011;4004;42.624;23.386;2022-12-15T09:17:20;19.37;;;16.27;;
7917;SDS011;4004;42.624;23.386;2022-12-15T09:19:47;21.20;;;16.77;;
7917;SDS011;4004;42.624;23.386;2022-12-15T09:22:14;20.17;;;17.10;;
7917;SDS011;4004;42.624;23.386;2022-12-15T09:24:40;20.00;;;17.93;;
7917;SDS011;4004;42.624;23.386;2022-12-15T09:27:07;24.90;;;21.33;;
7917;SDS011;4004;42.624;23.386;2022-12-15T09:29:34;23.13;;;20.67;;
7917;SDS011;4004;42.624;23.386;2022-12-15T09:32:01;22.00;;;19.57;;
7917;SDS011;4004;42.624;23.386;2022-12-15T09:34:29;26.13;;;20.87;;
7917;SDS011;4004;42.624;23.386;2022-12-15T09:36:56;24.67;;;21.27;;
7917;SDS011;4004;42.624;23.386;2022-12-15T09:39:23;29.23;;;23.97;;
7917;SDS011;4004;42.624;23.386;2022-12-15T09:41:51;26.93;;;22.20;;
7917;SDS011;4004;42.624;23.386;2022-12-15T09:44:20;30.20;;;25.63;;
7917;SDS011;4004;42.624;23.386;2022-12-15T09:46:59;31.00;;;25.67;;
7917;SDS011;4004;42.624;23.386;2022-12-15T09:49:47;24.13;;;20.50;;
7917;SDS011;4004;42.624;23.386;2022-12-15T09:52:21;27.80;;;21.47;;
7917;SDS011;4004;42.624;23.386;2022-12-15T09:54:50;26.57;;;22.03;;
7917;SDS011;4004;42.624;23.386;2022-12-15T09:57:20;24.53;;;19.13;;
7917;SDS011;4004;42.624;23.386;2022-12-15T10:00:05;30.77;;;23.67;;
7917;SDS011;4004;42.624;23.386;2022-12-15T10:02:57;34.23;;;26.53;;
7917;SDS011;4004;42.624;23.386;2022-12-15T10:05:50;31.93;;;27.23;;
7917;SDS011;4004;42.624;23.386;2022-12-15T10:08:27;33.70;;;22.63;;
7917;SDS011;4004;42.624;23.386;2022-12-15T10:10:56;29.90;;;22.70;;
7917;SDS011;4004;42.624;23.386;2022-12-15T10:13:27;29.57;;;26.33;;
7917;SDS011;4004;42.624;23.386;2022-12-15T10:16:02;28.60;;;24.43;;
7917;SDS011;4004;42.624;23.386;2022-12-15T10:18:34;28.53;;;23.63;;
7917;SDS011;4004;42.624;23.386;2022-12-15T10:21:08;27.90;;;23.53;;
7917;SDS011;4004;42.624;23.386;2022-12-15T10:23:38;29.10;;;23.80;;
7917;SDS011;4004;42.624;23.386;2022-12-15T10:26:13;27.97;;;23.73;;
7917;SDS011;4004;42.624;23.386;2022-12-15T10:28:54;30.10;;;25.63;;
7917;SDS011;4004;42.624;23.386;2022-12-15T10:31:36;31.80;;;26.37;;
7917;SDS011;4004;42.624;23.386;2022-12-15T10:34:09;29.60;;;25.27;;
7917;SDS011;4004;42.624;23.386;2022-12-15T10:36:55;30.00;;;25.30;;
7917;SDS011;4004;42.624;23.386;2022-12-15T10:39:25;29.13;;;24.43;;
7917;SDS011;4004;42.624;23.386;2022-12-15T10:42:10;29.13;;;24.47;;
7917;SDS011;4004;42.624;23.386;2022-12-15T10:44:40;28.80;;;23.60;;
7917;SDS011;4004;42.624;23.386;2022-12-15T10:47:08;32.33;;;24.50;;
7917;SDS011;4004;42.624;23.386;2022-12-15T10:49:36;30.13;;;22.30;;
7917;SDS011;4004;42.624;23.386;2022-12-15T10:52:04;25.53;;;22.30;;
7917;SDS011;4004;42.624;23.386;2022-12-15T10:54:43;28.93;;;22.53;;
7917;SDS011;4004;42.624;23.386;2022-12-15T10:57:14;27.33;;;24.37;;
7917;SDS011;4004;42.624;23.386;2022-12-15T10:59:45;30.80;;;24.97;;
7917;SDS011;4004;42.624;23.386;2022-12-15T11:02:25;28.40;;;23.43;;
7917;SDS011;4004;42.624;23.386;2022-12-15T11:04:56;26.27;;;22.47;;
7917;SDS011;4004;42.624;23.386;2022-12-15T11:07:27;26.63;;;22.30;;
7917;SDS011;4004;42.624;23.386;2022-12-15T11:09:59;26.73;;;22.10;;
7917;SDS011;4004;42.624;23.386;2022-12-15T11:12:28;29.10;;;24.70;;
7917;SDS011;4004;42.624;23.386;2022-12-15T11:18:13;27.37;;;22.23;;
7917;SDS011;4004;42.624;23.386;2022-12-15T11:20:49;27.63;;;24.13;;
7917;SDS011;4004;42.624;23.386;2022-12-15T11:23:20;27.77;;;23.17;;
7917;SDS011;4004;42.624;23.386;2022-12-15T11:25:50;29.60;;;23.67;;
7917;SDS011;4004;42.624;23.386;2022-12-15T11:28:24;26.67;;;22.50;;
7917;SDS011;4004;42.624;23.386;2022-12-15T11:30:59;29.33;;;23.40;;
7917;SDS011;4004;42.624;23.386;2022-12-15T11:33:30;28.00;;;23.37;;
7917;SDS011;4004;42.624;23.386;2022-12-15T11:36:01;29.33;;;23.63;;
7917;SDS011;4004;42.624;23.386;2022-12-15T11:38:40;26.67;;;22.10;;
7917;SDS011;4004;42.624;23.386;2022-12-15T11:41:15;27.43;;;22.57;;
7917;SDS011;4004;42.624;23.386;2022-12-15T11:44:00;26.80;;;22.80;;
7917;SDS011;4004;42.624;23.386;2022-12-15T11:46:35;28.17;;;21.60;;
7917;SDS011;4004;42.624;23.386;2022-12-15T11:49:13;24.90;;;21.63;;
7917;SDS011;4004;42.624;23.386;2022-12-15T11:52:01;29.00;;;23.07;;
7917;SDS011;4004;42.624;23.386;2022-12-15T11:54:35;25.03;;;22.00;;
7917;SDS011;4004;42.624;23.386;2022-12-15T11:57:12;25.43;;;21.87;;
7917;SDS011;4004;42.624;23.386;2022-12-15T11:59:54;25.60;;;21.70;;
7917;SDS011;4004;42.624;23.386;2022-12-15T12:02:36;27.93;;;22.03;;
7917;SDS011;4004;42.624;23.386;2022-12-15T12:05:30;29.37;;;22.33;;
7917;SDS011;4004;42.624;23.386;2022-12-15T12:08:08;25.67;;;21.67;;
7917;SDS011;4004;42.624;23.386;2022-12-15T12:10:48;24.50;;;21.60;;
7917;SDS011;4004;42.624;23.386;2022-12-15T12:13:23;27.30;;;23.53;;
7917;SDS011;4004;42.624;23.386;2022-12-15T12:15:59;27.53;;;23.73;;
7917;SDS011;4004;42.624;23.386;2022-12-15T12:18:35;30.33;;;22.77;;
7917;SDS011;4004;42.624;23.386;2022-12-15T12:21:06;35.63;;;23.87;;
7917;SDS011;4004;42.624;23.386;2022-12-15T12:23:37;27.77;;;23.57;;
7917;SDS011;4004;42.624;23.386;2022-12-15T12:26:14;39.73;;;24.77;;
7917;SDS011;4004;42.624;23.386;2022-12-15T12:28:47;29.27;;;23.37;;
7917;SDS011;4004;42.624;23.386;2022-12-15T12:31:22;33.27;;;24.20;;
7917;SDS011;4004;42.624;23.386;2022-12-15T12:33:57;30.33;;;25.30;;
7917;SDS011;4004;42.624;23.386;2022-12-15T12:36:29;30.70;;;25.40;;
7917;SDS011;4004;42.624;23.386;2022-12-15T12:38:56;33.90;;;26.17;;
7917;SDS011;4004;42.624;23.386;2022-12-15T12:41:31;33.27;;;26.47;;
7917;SDS011;4004;42.624;23.386;2022-12-15T12:44:07;30.07;;;24.93;;
7917;SDS011;4004;42.624;23.386;2022-12-15T12:46:39;33.40;;;26.10;;
7917;SDS011;4004;42.624;23.386;2022-12-15T12:49:11;30.50;;;25.30;;
7917;SDS011;4004;42.624;23.386;2022-12-15T12:51:47;29.80;;;25.17;;
7917;SDS011;4004;42.624;23.386;2022-12-15T13:00:14;29.53;;;24.70;;
7917;SDS011;4004;42.624;23.386;2022-12-15T13:02:45;31.97;;;26.33;;
7917;SDS011;4004;42.624;23.386;2022-12-15T13:05:28;33.63;;;26.80;;
7917;SDS011;4004;42.624;23.386;2022-12-15T13:14:36;31.73;;;27.67;;
7917;SDS011;4004;42.624;23.386;2022-12-15T13:17:18;32.93;;;27.13;;
7917;SDS011;4004;42.624;23.386;2022-12-15T13:22:48;51.20;;;32.07;;
7917;SDS011;4004;42.624;23.386;2022-12-15T13:25:26;53.53;;;33.80;;
7917;SDS011;4004;42.624;23.386;2022-12-15T13:28:02;38.10;;;28.83;;
7917;SDS011;4004;42.624;23.386;2022-12-15T13:33:44;40.77;;;30.33;;
7917;SDS011;4004;42.624;23.386;2022-12-15T13:48:01;29.70;;;21.27;;
7917;SDS011;4004;42.624;23.386;2022-12-15T13:50:37;25.57;;;20.97;;
7917;SDS011;4004;42.624;23.386;2022-12-15T13:53:12;27.33;;;21.27;;
7917;SDS011;4004;42.624;23.386;2022-12-15T13:55:56;24.70;;;20.53;;
7917;SDS011;4004;42.624;23.386;2022-12-15T13:58:28;28.33;;;22.00;;
7917;SDS011;4004;42.624;23.386;2022-12-15T14:01:14;28.47;;;22.17;;
7917;SDS011;4004;42.624;23.386;2022-12-15T14:03:54;30.00;;;22.90;;
7917;SDS011;4004;42.624;23.386;2022-12-15T14:06:24;27.87;;;22.20;;
7917;SDS011;4004;42.624;23.386;2022-12-15T14:08:59;28.00;;;21.17;;
7917;SDS011;4004;42.624;23.386;2022-12-15T14:11:26;29.60;;;23.07;;
7917;SDS011;4004;42.624;23.386;2022-12-15T14:13:58;30.73;;;22.73;;
7917;SDS011;4004;42.624;23.386;2022-12-15T14:16:25;34.47;;;25.67;;
7917;SDS011;4004;42.624;23.386;2022-12-15T14:19:02;32.13;;;25.20;;
7917;SDS011;4004;42.624;23.386;2022-12-15T14:21:36;34.43;;;27.17;;
7917;SDS011;4004;42.624;23.386;2022-12-15T14:24:11;35.23;;;29.23;;
7917;SDS011;4004;42.624;23.386;2022-12-15T14:26:46;33.77;;;26.50;;
7917;SDS011;4004;42.624;23.386;2022-12-15T14:29:13;34.63;;;27.33;;
7917;SDS011;4004;42.624;23.386;2022-12-15T14:31:48;35.10;;;28.67;;
7917;SDS011;4004;42.624;23.386;2022-12-15T14:34:23;34.57;;;28.83;;
7917;SDS011;4004;42.624;23.386;2022-12-15T14:36:56;37.83;;;29.30;;
7917;SDS011;4004;42.624;23.386;2022-12-15T14:39:29;41.73;;;31.27;;
7917;SDS011;4004;42.624;23.386;2022-12-15T14:42:01;37.90;;;30.57;;
7917;SDS011;4004;42.624;23.386;2022-12-15T14:44:31;42.73;;;33.13;;
7917;SDS011;4004;42.624;23.386;2022-12-15T14:47:01;40.20;;;31.63;;
7917;SDS011;4004;42.624;23.386;2022-12-15T14:49:31;48.97;;;31.77;;
7917;SDS011;4004;42.624;23.386;2022-12-15T14:52:05;40.43;;;29.93;;
7917;SDS011;4004;42.624;23.386;2022-12-15T14:54:48;40.00;;;31.17;;
7917;SDS011;4004;42.624;23.386;2022-12-15T14:57:19;40.37;;;30.43;;
7917;SDS011;4004;42.624;23.386;2022-12-15T14:59:48;38.80;;;31.17;;
7917;SDS011;4004;42.624;23.386;2022-12-15T15:02:18;38.27;;;29.77;;
7917;SDS011;4004;42.624;23.386;2022-12-15T15:04:55;46.93;;;35.03;;
7917;SDS011;4004;42.624;23.386;2022-12-15T15:07:28;37.67;;;28.60;;
7917;SDS011;4004;42.624;23.386;2022-12-15T15:09:56;36.13;;;28.63;;
7917;SDS011;4004;42.624;23.386;2022-12-15T15:12:23;32.37;;;22.20;;
7917;SDS011;4004;42.624;23.386;2022-12-15T15:15:00;30.67;;;23.80;;
7917;SDS011;4004;42.624;23.386;2022-12-15T15:17:32;31.63;;;24.70;;
7917;SDS011;4004;42.624;23.386;2022-12-15T15:20:02;31.93;;;24.73;;
7917;SDS011;4004;42.624;23.386;2022-12-15T15:22:37;33.00;;;26.00;;
7917;SDS011;4004;42.624;23.386;2022-12-15T15:25:21;34.97;;;27.47;;
7917;SDS011;4004;42.624;23.386;2022-12-15T15:27:59;35.23;;;25.63;;
7917;SDS011;4004;42.624;23.386;2022-12-15T15:30:27;31.10;;;24.47;;
7917;SDS011;4004;42.624;23.386;2022-12-15T15:32:54;28.37;;;22.23;;
7917;SDS011;4004;42.624;23.386;2022-12-15T15:35:23;30.87;;;22.80;;
7917;SDS011;4004;42.624;23.386;2022-12-15T15:37:57;35.73;;;24.60;;
7917;SDS011;4004;42.624;23.386;2022-12-15T15:40:27;34.20;;;25.73;;
7917;SDS011;4004;42.624;23.386;2022-12-15T15:42:54;38.43;;;28.20;;
7917;SDS011;4004;42.624;23.386;2022-12-15T15:45:21;43.73;;;30.77;;
7917;SDS011;4004;42.624;23.386;2022-12-15T15:47:50;42.67;;;30.03;;